createdAt,value
2022-12-31T00:00:07.997Z,3.40
2022-12-31T00:02:35.282Z,3.30
2022-12-31T00:05:02.268Z,3.37
2022-12-31T00:07:28.990Z,3.40
2022-12-31T00:09:55.719Z,3.03
2022-12-31T00:12:22.509Z,3.43
2022-12-31T00:14:49.696Z,3.00
2022-12-31T00:17:16.365Z,3.67
2022-12-31T00:19:43.887Z,3.70
2022-12-31T00:22:10.724Z,3.20
2022-12-31T00:24:37.359Z,3.87
2022-12-31T00:27:04.112Z,3.80
2022-12-31T00:29:30.891Z,4.00
2022-12-31T00:31:57.517Z,4.10
2022-12-31T00:34:24.292Z,4.83
2022-12-31T00:36:50.995Z,4.50
2022-12-31T00:39:17.685Z,4.30
2022-12-31T00:41:44.424Z,4.30
2022-12-31T00:44:14.581Z,4.30
2022-12-31T00:49:07.173Z,3.90
2022-12-31T00:51:33.874Z,4.17
2022-12-31T00:54:01.047Z,3.70
2022-12-31T00:56:31.630Z,2.70
2022-12-31T00:58:59.575Z,2.93
2022-12-31T01:01:29.474Z,3.00
2022-12-31T01:04:00.369Z,2.83
2022-12-31T01:06:27.212Z,2.90
2022-12-31T01:08:55.768Z,2.63
2022-12-31T01:11:23.375Z,2.10
2022-12-31T01:13:56.996Z,2.20
2022-12-31T01:16:26.634Z,2.40
2022-12-31T01:18:53.949Z,2.70
2022-12-31T01:21:21.841Z,2.30
2022-12-31T01:23:48.950Z,2.40
2022-12-31T01:26:17.240Z,2.17
2022-12-31T01:28:44.126Z,2.43
2022-12-31T01:31:13.144Z,2.30
2022-12-31T01:33:41.801Z,2.80
2022-12-31T01:36:11.899Z,2.40
2022-12-31T01:38:39.049Z,2.30
2022-12-31T01:41:06.148Z,2.30
2022-12-31T01:43:46.726Z,2.50
2022-12-31T01:46:19.611Z,2.60
2022-12-31T01:48:49.013Z,2.50
2022-12-31T01:51:15.823Z,2.70
2022-12-31T01:53:43.218Z,2.37
2022-12-31T01:56:10.123Z,2.60
2022-12-31T01:58:49.024Z,2.50
2022-12-31T02:01:21.992Z,2.80
2022-12-31T02:03:48.835Z,2.70
2022-12-31T02:06:21.965Z,2.40
2022-12-31T02:08:48.989Z,2.60
2022-12-31T02:11:24.937Z,2.83
2022-12-31T02:13:58.144Z,2.40
2022-12-31T02:16:34.393Z,2.60
2022-12-31T02:19:38.744Z,2.10
2022-12-31T02:22:46.563Z,2.20
2022-12-31T02:25:41.272Z,2.30
2022-12-31T02:28:10.667Z,1.97
2022-12-31T02:30:37.683Z,2.13
2022-12-31T02:33:23.175Z,1.97
2022-12-31T02:35:54.639Z,1.93
2022-12-31T02:38:25.988Z,1.70
2022-12-31T02:40:56.549Z,1.73
2022-12-31T02:43:24.107Z,1.70
2022-12-31T02:46:04.503Z,1.70
2022-12-31T02:48:46.131Z,1.43
2022-12-31T02:51:21.526Z,1.80
2022-12-31T02:54:00.331Z,1.60
2022-12-31T02:56:36.011Z,1.40
2022-12-31T02:59:25.758Z,1.60
2022-12-31T03:02:14.005Z,2.27
2022-12-31T03:04:43.494Z,3.87
2022-12-31T03:07:13.171Z,1.50
2022-12-31T03:09:40.412Z,1.50
2022-12-31T03:12:27.774Z,1.30
2022-12-31T03:14:54.445Z,1.60
2022-12-31T03:17:21.626Z,1.47
2022-12-31T03:20:06.949Z,1.50
2022-12-31T03:22:36.422Z,1.30
2022-12-31T03:25:35.110Z,1.50
2022-12-31T03:28:03.627Z,1.30
2022-12-31T03:30:31.876Z,1.30
2022-12-31T03:32:59.286Z,1.10
2022-12-31T03:35:27.985Z,1.20
2022-12-31T03:37:55.002Z,1.00
2022-12-31T03:40:23.081Z,0.80
2022-12-31T03:42:50.816Z,0.90
2022-12-31T03:45:18.253Z,1.27
2022-12-31T03:47:45.069Z,0.87
2022-12-31T03:50:13.933Z,0.93
2022-12-31T03:52:40.921Z,0.90
2022-12-31T03:55:08.776Z,0.80
2022-12-31T03:57:35.685Z,0.90
2022-12-31T04:00:03.102Z,1.00
2022-12-31T04:02:31.520Z,0.80
2022-12-31T04:04:58.213Z,0.80
2022-12-31T04:07:24.980Z,0.90
2022-12-31T04:09:51.685Z,0.97
2022-12-31T04:12:18.479Z,1.00
2022-12-31T04:14:45.164Z,1.10
2022-12-31T04:17:11.969Z,1.20
2022-12-31T04:19:38.672Z,1.00
2022-12-31T04:22:05.906Z,1.00
2022-12-31T04:24:32.657Z,1.43
2022-12-31T04:27:03.747Z,0.70
2022-12-31T04:29:34.536Z,0.90
2022-12-31T04:32:01.457Z,0.90
2022-12-31T04:34:28.222Z,0.70
2022-12-31T04:36:54.987Z,0.90
2022-12-31T04:39:21.716Z,1.10
2022-12-31T04:41:49.583Z,1.10
2022-12-31T04:44:16.589Z,1.20
2022-12-31T04:46:43.481Z,0.70
2022-12-31T04:49:10.294Z,0.80
2022-12-31T04:51:37.356Z,1.10
2022-12-31T04:54:04.524Z,2.63
2022-12-31T04:56:32.241Z,1.73
2022-12-31T04:58:59.238Z,1.77
2022-12-31T05:01:26.751Z,2.70
2022-12-31T05:03:53.683Z,2.23
2022-12-31T05:06:22.776Z,2.27
2022-12-31T05:08:49.794Z,2.03
2022-12-31T05:11:17.478Z,2.13
2022-12-31T05:13:44.786Z,1.90
2022-12-31T05:16:11.641Z,1.73
2022-12-31T05:18:38.533Z,1.30
2022-12-31T05:21:07.991Z,1.70
2022-12-31T05:23:34.826Z,1.60
2022-12-31T05:26:01.998Z,1.60
2022-12-31T05:28:28.771Z,1.67
2022-12-31T05:30:55.698Z,1.40
2022-12-31T05:33:23.087Z,1.60
2022-12-31T05:35:50.107Z,1.60
2022-12-31T05:38:16.813Z,1.50
2022-12-31T05:40:45.568Z,1.60
2022-12-31T05:43:13.655Z,1.47
2022-12-31T05:45:40.392Z,1.23
2022-12-31T05:48:09.392Z,1.50
2022-12-31T05:50:36.043Z,1.40
2022-12-31T05:53:04.083Z,1.20
2022-12-31T05:55:30.789Z,1.20
2022-12-31T05:57:57.637Z,1.10
2022-12-31T06:00:24.385Z,1.17
2022-12-31T06:02:51.183Z,1.27
2022-12-31T06:05:24.159Z,1.00
2022-12-31T06:07:52.682Z,1.10
2022-12-31T06:10:19.287Z,1.00
2022-12-31T06:12:46.157Z,1.10
2022-12-31T06:15:12.920Z,0.97
2022-12-31T06:17:39.641Z,0.90
2022-12-31T06:20:12.368Z,1.10
2022-12-31T06:22:39.889Z,1.70
2022-12-31T06:25:07.012Z,1.40
2022-12-31T06:27:33.632Z,1.30
2022-12-31T06:30:00.382Z,0.80
2022-12-31T06:32:27.113Z,1.00
2022-12-31T06:34:53.891Z,1.00
2022-12-31T06:37:20.632Z,0.90
2022-12-31T06:39:47.296Z,1.03
2022-12-31T06:42:14.477Z,1.80
2022-12-31T06:44:41.196Z,1.70
2022-12-31T06:47:07.937Z,1.80
2022-12-31T06:49:34.646Z,1.80
2022-12-31T06:52:01.366Z,2.00
2022-12-31T06:54:28.054Z,1.80
2022-12-31T06:56:55.206Z,1.73
2022-12-31T06:59:29.703Z,1.30
2022-12-31T07:02:24.373Z,1.60
2022-12-31T07:05:14.570Z,1.40
2022-12-31T07:07:47.261Z,1.50
2022-12-31T07:10:22.781Z,1.07
2022-12-31T07:13:24.649Z,1.27
2022-12-31T07:16:30.792Z,1.20
2022-12-31T07:19:25.047Z,1.30
2022-12-31T07:21:53.455Z,1.23
2022-12-31T07:24:20.564Z,1.40
2022-12-31T07:26:55.957Z,2.50
2022-12-31T07:29:54.584Z,3.30
2022-12-31T07:32:27.539Z,3.57
2022-12-31T07:35:01.413Z,1.10
2022-12-31T07:37:49.561Z,1.00
2022-12-31T07:40:56.791Z,0.90
2022-12-31T07:43:29.106Z,0.73
2022-12-31T07:45:59.208Z,0.93
2022-12-31T07:48:27.911Z,0.80
2022-12-31T07:50:56.481Z,1.00
2022-12-31T07:53:24.196Z,0.90
2022-12-31T07:55:55.512Z,1.00
2022-12-31T07:58:27.481Z,0.80
2022-12-31T08:00:56.072Z,1.00
2022-12-31T08:03:25.707Z,1.00
2022-12-31T08:06:10.907Z,1.10
2022-12-31T08:08:51.357Z,1.00
2022-12-31T08:11:36.261Z,1.10
2022-12-31T08:14:03.564Z,1.20
2022-12-31T08:16:31.986Z,1.10
2022-12-31T08:18:59.035Z,1.30
2022-12-31T08:21:54.400Z,1.60
2022-12-31T08:24:26.978Z,1.60
2022-12-31T08:27:42.097Z,1.73
2022-12-31T08:30:16.903Z,1.70
2022-12-31T08:32:52.799Z,2.03
2022-12-31T08:35:28.519Z,1.90
2022-12-31T08:38:04.306Z,2.90
2022-12-31T08:40:47.966Z,2.50
2022-12-31T08:43:20.415Z,1.90
2022-12-31T08:45:52.747Z,2.37
2022-12-31T08:48:19.414Z,2.40
2022-12-31T08:50:46.385Z,2.17
2022-12-31T08:53:13.284Z,1.90
2022-12-31T08:55:42.029Z,2.07
2022-12-31T08:58:25.338Z,1.90
2022-12-31T09:00:54.817Z,1.90
2022-12-31T09:03:30.417Z,1.80
2022-12-31T09:06:11.290Z,1.90
2022-12-31T09:09:12.345Z,1.60
2022-12-31T09:11:51.148Z,1.60
2022-12-31T09:14:21.661Z,1.73
2022-12-31T09:17:19.423Z,1.60
2022-12-31T09:19:46.288Z,1.77
2022-12-31T09:22:13.100Z,1.50
2022-12-31T09:24:40.071Z,1.67
2022-12-31T09:27:27.745Z,1.40
2022-12-31T09:30:08.480Z,1.63
2022-12-31T09:32:41.557Z,1.50
2022-12-31T09:35:33.266Z,1.40
2022-12-31T09:38:23.040Z,1.50
2022-12-31T09:41:15.727Z,1.67
2022-12-31T09:43:58.957Z,1.27
2022-12-31T09:46:39.782Z,1.37
2022-12-31T09:49:27.864Z,1.20
2022-12-31T09:51:54.533Z,1.30
2022-12-31T09:54:33.366Z,1.27
2022-12-31T09:57:14.952Z,1.30
2022-12-31T10:00:00.244Z,1.20
2022-12-31T10:02:30.130Z,1.20
2022-12-31T10:05:22.283Z,2.00
2022-12-31T10:07:54.640Z,2.80
2022-12-31T10:10:31.023Z,1.70
2022-12-31T10:13:09.122Z,1.57
2022-12-31T10:15:57.613Z,1.60
2022-12-31T10:18:44.832Z,1.10
2022-12-31T10:21:51.845Z,1.40
2022-12-31T10:24:33.780Z,1.20
2022-12-31T10:27:09.602Z,1.07
2022-12-31T10:29:47.404Z,1.60
2022-12-31T10:32:17.004Z,1.30
2022-12-31T10:35:02.555Z,1.20
2022-12-31T10:37:41.800Z,1.50
2022-12-31T10:40:24.018Z,1.30
2022-12-31T10:42:59.732Z,1.27
2022-12-31T10:45:51.204Z,1.20
2022-12-31T10:48:56.570Z,1.20
2022-12-31T10:51:45.098Z,1.80
2022-12-31T10:54:42.304Z,1.40
2022-12-31T10:57:57.393Z,1.40
2022-12-31T11:00:30.564Z,1.57
2022-12-31T11:03:36.837Z,1.80
2022-12-31T11:06:22.283Z,2.03
2022-12-31T11:09:18.375Z,1.70
2022-12-31T11:11:58.929Z,1.93
2022-12-31T11:14:48.848Z,1.70
2022-12-31T11:17:24.681Z,1.93
2022-12-31T11:20:19.322Z,1.73
2022-12-31T11:22:45.946Z,1.70
2022-12-31T11:25:13.018Z,2.10
2022-12-31T11:28:07.532Z,1.80
2022-12-31T11:31:32.948Z,1.70
2022-12-31T11:34:11.733Z,1.80
2022-12-31T11:36:53.307Z,1.90
2022-12-31T11:39:51.859Z,2.50
2022-12-31T11:42:56.941Z,2.03
2022-12-31T11:45:53.947Z,2.00
2022-12-31T11:48:50.661Z,1.90
2022-12-31T11:51:49.990Z,2.27
2022-12-31T11:54:40.178Z,1.87
2022-12-31T11:57:27.724Z,1.90
2022-12-31T11:59:58.284Z,2.07
2022-12-31T12:02:28.230Z,2.00
2022-12-31T12:04:58.556Z,2.10
2022-12-31T12:07:26.041Z,2.10
2022-12-31T12:09:58.110Z,1.93
2022-12-31T12:12:24.969Z,2.07
2022-12-31T12:14:53.747Z,2.10
2022-12-31T12:17:32.385Z,2.10
2022-12-31T12:20:16.442Z,3.80
2022-12-31T12:22:54.434Z,1.93
2022-12-31T12:25:23.949Z,2.20
2022-12-31T12:27:50.646Z,2.00
2022-12-31T12:30:21.989Z,2.00
2022-12-31T12:32:54.052Z,1.80
2022-12-31T12:35:31.949Z,1.97
2022-12-31T12:38:17.320Z,1.77
2022-12-31T12:41:00.999Z,1.97
2022-12-31T12:43:30.646Z,1.70
2022-12-31T12:46:16.962Z,2.10
2022-12-31T12:48:46.781Z,1.70
2022-12-31T12:51:47.930Z,1.80
2022-12-31T12:54:29.679Z,1.73
2022-12-31T12:57:28.814Z,1.87
2022-12-31T13:00:15.897Z,1.80
2022-12-31T13:02:48.868Z,2.00
2022-12-31T13:05:38.439Z,1.60
2022-12-31T13:08:43.721Z,1.67
2022-12-31T13:11:16.004Z,1.80
2022-12-31T13:13:46.618Z,2.20
2022-12-31T13:16:22.590Z,1.83
2022-12-31T13:19:14.296Z,1.50
2022-12-31T13:22:03.292Z,1.80
2022-12-31T13:24:39.064Z,1.50
2022-12-31T13:27:14.016Z,1.87
2022-12-31T13:29:42.592Z,1.77
2022-12-31T13:32:12.975Z,1.60
2022-12-31T13:34:44.806Z,2.20
2022-12-31T13:37:40.800Z,1.60
2022-12-31T13:40:28.314Z,1.80
2022-12-31T13:42:58.447Z,1.43
2022-12-31T13:45:29.177Z,1.63
2022-12-31T13:48:01.363Z,1.60
2022-12-31T13:50:37.178Z,1.67
2022-12-31T13:53:23.039Z,1.40
2022-12-31T13:55:57.932Z,1.80
2022-12-31T13:58:36.039Z,1.47
2022-12-31T14:01:28.233Z,1.70
2022-12-31T14:04:23.820Z,1.93
2022-12-31T14:06:56.779Z,1.70
2022-12-31T14:09:26.639Z,2.73
2022-12-31T14:11:53.375Z,3.70
2022-12-31T14:14:35.311Z,2.70
2022-12-31T14:17:27.135Z,2.47
2022-12-31T14:20:03.035Z,2.17
2022-12-31T14:22:48.183Z,2.60
2022-12-31T14:25:27.616Z,1.50
2022-12-31T14:27:56.715Z,1.60
2022-12-31T14:30:27.071Z,1.67
2022-12-31T14:33:41.542Z,2.00
2022-12-31T14:36:18.167Z,1.60
2022-12-31T14:39:01.435Z,2.00
2022-12-31T14:41:38.646Z,1.90
2022-12-31T14:44:18.715Z,1.87
2022-12-31T14:46:53.638Z,2.10
2022-12-31T14:49:41.978Z,1.70
2022-12-31T14:52:24.208Z,1.97
2022-12-31T14:55:03.548Z,1.90
2022-12-31T14:58:17.174Z,2.13
2022-12-31T15:00:38.326Z,2.00
2022-12-31T15:03:18.171Z,1.80
2022-12-31T15:06:22.995Z,1.90
2022-12-31T15:09:08.165Z,1.97
2022-12-31T15:11:38.357Z,1.83
2022-12-31T15:14:37.577Z,1.50
2022-12-31T15:17:31.332Z,1.90
2022-12-31T15:20:32.694Z,2.17
2022-12-31T15:22:59.524Z,1.77
2022-12-31T15:25:40.527Z,1.67
2022-12-31T15:28:23.197Z,1.83
2022-12-31T15:30:50.383Z,2.00
2022-12-31T15:33:21.999Z,1.87
2022-12-31T15:35:51.623Z,1.90
2022-12-31T15:38:30.352Z,1.63
2022-12-31T15:40:57.392Z,1.80
2022-12-31T15:43:23.938Z,2.23
2022-12-31T15:45:54.213Z,2.80
2022-12-31T15:48:44.609Z,2.07
2022-12-31T15:51:23.407Z,2.40
2022-12-31T15:53:53.127Z,2.83
2022-12-31T15:56:27.916Z,3.30
2022-12-31T15:58:57.946Z,2.40
2022-12-31T16:01:30.095Z,2.37
2022-12-31T16:04:00.217Z,2.40
2022-12-31T16:06:29.504Z,2.60
2022-12-31T16:08:56.277Z,2.43
2022-12-31T16:11:24.664Z,2.10
2022-12-31T16:13:54.031Z,2.47
2022-12-31T16:16:27.955Z,2.87
2022-12-31T16:18:55.238Z,2.93
2022-12-31T16:21:35.241Z,2.60
2022-12-31T16:24:26.590Z,3.30
2022-12-31T16:26:55.243Z,2.50
2022-12-31T16:29:23.320Z,3.10
2022-12-31T16:31:51.526Z,2.37
2022-12-31T16:34:22.236Z,2.30
2022-12-31T16:37:06.246Z,2.23
2022-12-31T16:39:34.223Z,2.60
2022-12-31T16:42:10.035Z,2.37
2022-12-31T16:44:36.728Z,2.50
2022-12-31T16:47:03.998Z,2.60
2022-12-31T16:49:32.242Z,2.30
2022-12-31T16:52:03.508Z,2.20
2022-12-31T16:54:38.492Z,2.00
2022-12-31T16:57:06.443Z,2.33
2022-12-31T16:59:41.635Z,2.43
2022-12-31T17:02:23.422Z,2.80
2022-12-31T17:04:56.152Z,2.50
2022-12-31T17:07:32.425Z,2.80
2022-12-31T17:10:09.158Z,2.23
2022-12-31T17:13:25.021Z,2.90
2022-12-31T17:15:40.638Z,3.17
2022-12-31T17:18:07.840Z,2.60
2022-12-31T17:20:34.747Z,2.30
2022-12-31T17:23:04.589Z,2.43
2022-12-31T17:25:33.166Z,2.67
2022-12-31T17:28:04.070Z,3.23
2022-12-31T17:30:32.594Z,3.37
2022-12-31T17:33:12.930Z,3.00
2022-12-31T17:35:42.318Z,3.00
2022-12-31T17:38:21.140Z,2.90
2022-12-31T17:41:05.403Z,3.40
2022-12-31T17:43:37.132Z,2.40
2022-12-31T17:46:09.924Z,2.80
2022-12-31T17:48:36.740Z,2.70
2022-12-31T17:51:03.491Z,4.17
2022-12-31T17:53:30.190Z,3.60
2022-12-31T17:56:01.498Z,2.80
2022-12-31T17:58:30.077Z,2.27
2022-12-31T18:00:58.087Z,2.60
2022-12-31T18:03:24.954Z,2.37
2022-12-31T18:05:51.787Z,2.87
2022-12-31T18:08:21.201Z,2.27
2022-12-31T18:10:51.506Z,2.93
2022-12-31T18:13:21.249Z,2.50
2022-12-31T18:15:48.501Z,3.30
2022-12-31T18:18:26.699Z,3.07
2022-12-31T18:21:05.761Z,2.10
2022-12-31T18:23:39.239Z,2.10
2022-12-31T18:26:06.297Z,2.83
2022-12-31T18:28:33.045Z,2.40
2022-12-31T18:30:59.804Z,2.50
2022-12-31T18:33:26.968Z,2.50
2022-12-31T18:36:10.431Z,2.30
2022-12-31T18:38:37.820Z,2.20
2022-12-31T18:41:04.654Z,2.30
2022-12-31T18:43:31.906Z,2.30
2022-12-31T18:45:58.780Z,2.63
2022-12-31T18:48:25.562Z,2.50
2022-12-31T18:50:53.063Z,2.30
2022-12-31T18:53:21.800Z,1.90
2022-12-31T18:55:50.873Z,2.30
2022-12-31T18:58:17.664Z,2.37
2022-12-31T19:00:45.749Z,2.40
2022-12-31T19:03:22.087Z,2.37
2022-12-31T19:05:50.891Z,2.10
2022-12-31T19:08:22.043Z,2.30
2022-12-31T19:10:52.395Z,2.40
2022-12-31T19:13:20.421Z,2.20
2022-12-31T19:15:51.897Z,2.53
2022-12-31T19:18:18.873Z,2.40
2022-12-31T19:20:47.841Z,2.50
2022-12-31T19:23:20.526Z,2.67
2022-12-31T19:25:49.178Z,2.33
2022-12-31T19:28:22.902Z,2.60
2022-12-31T19:30:53.084Z,2.60
2022-12-31T19:33:20.333Z,2.43
2022-12-31T19:35:48.079Z,2.83
2022-12-31T19:38:25.452Z,2.30
2022-12-31T19:40:53.516Z,2.40
2022-12-31T19:43:23.667Z,3.07
2022-12-31T19:45:51.478Z,3.10
2022-12-31T19:48:27.202Z,2.60
2022-12-31T19:50:59.033Z,3.00
2022-12-31T19:53:27.358Z,2.40
2022-12-31T19:55:54.069Z,2.23
2022-12-31T19:58:25.680Z,2.40
2022-12-31T20:00:57.067Z,2.40
2022-12-31T20:03:28.238Z,2.37
2022-12-31T20:06:09.590Z,2.87
2022-12-31T20:08:38.098Z,3.07
2022-12-31T20:11:18.938Z,2.60
2022-12-31T20:13:49.467Z,2.30
2022-12-31T20:16:18.634Z,2.57
2022-12-31T20:18:46.802Z,2.80
2022-12-31T20:21:24.696Z,2.90
2022-12-31T20:23:53.145Z,2.27
2022-12-31T20:26:22.869Z,2.57
2022-12-31T20:28:50.924Z,2.90
2022-12-31T20:31:20.050Z,2.83
2022-12-31T20:33:47.141Z,2.60
2022-12-31T20:36:15.496Z,2.80
2022-12-31T20:38:44.730Z,2.67
2022-12-31T20:41:21.849Z,2.90
2022-12-31T20:43:48.900Z,2.63
2022-12-31T20:46:21.298Z,2.87
2022-12-31T20:48:49.334Z,2.63
2022-12-31T20:51:17.257Z,2.80
2022-12-31T20:53:52.223Z,2.30
2022-12-31T20:56:19.277Z,2.77
2022-12-31T20:58:46.128Z,2.97
2022-12-31T21:01:17.247Z,2.60
2022-12-31T21:06:32.895Z,2.50
2022-12-31T21:09:01.025Z,2.87
2022-12-31T21:11:49.910Z,3.10
2022-12-31T21:14:16.739Z,3.17
2022-12-31T21:16:43.495Z,2.60
2022-12-31T21:19:10.396Z,3.10
2022-12-31T21:21:45.477Z,2.73
2022-12-31T21:24:12.223Z,2.43
2022-12-31T21:26:38.974Z,2.90
2022-12-31T21:29:05.709Z,2.50
2022-12-31T21:31:32.630Z,2.73
2022-12-31T21:33:59.445Z,2.70
2022-12-31T21:36:26.188Z,3.63
2022-12-31T21:38:52.854Z,4.07
2022-12-31T21:41:38.272Z,4.33
2022-12-31T21:44:05.096Z,3.43
2022-12-31T21:46:31.889Z,3.80
2022-12-31T21:48:59.650Z,3.90
2022-12-31T21:51:27.751Z,3.63
2022-12-31T21:53:54.665Z,3.20
2022-12-31T21:56:21.810Z,2.90
2022-12-31T21:59:13.824Z,4.63
2022-12-31T22:02:02.303Z,2.90
2022-12-31T22:05:17.547Z,2.90
2022-12-31T22:07:16.438Z,3.50
2022-12-31T22:09:43.138Z,2.87
2022-12-31T22:12:09.953Z,3.23
2022-12-31T22:14:36.767Z,3.83
2022-12-31T22:17:03.512Z,3.53
2022-12-31T22:19:30.192Z,3.17
2022-12-31T22:21:56.927Z,2.77
2022-12-31T22:24:23.721Z,3.27
2022-12-31T22:26:51.075Z,2.70
2022-12-31T22:29:19.296Z,2.90
2022-12-31T22:31:46.052Z,3.50
2022-12-31T22:34:15.636Z,2.80
2022-12-31T22:36:42.363Z,2.87
2022-12-31T22:39:43.401Z,3.13
2022-12-31T22:42:11.087Z,3.10
2022-12-31T22:44:37.843Z,2.90
2022-12-31T22:47:04.636Z,3.20
2022-12-31T22:49:31.440Z,3.00
2022-12-31T22:52:02.987Z,3.20
2022-12-31T22:54:34.004Z,3.70
2022-12-31T22:57:01.473Z,3.20
2022-12-31T22:59:30.548Z,5.47
2022-12-31T23:01:57.351Z,4.23
2022-12-31T23:04:24.174Z,6.40
2022-12-31T23:06:50.943Z,10.37
2022-12-31T23:09:36.341Z,11.07
2022-12-31T23:12:04.745Z,36.33
2022-12-31T23:14:50.283Z,12.47
2022-12-31T23:17:38.849Z,11.60
2022-12-31T23:20:27.145Z,18.43
2022-12-31T23:23:05.872Z,14.90
2022-12-31T23:25:33.669Z,16.83
2022-12-31T23:28:00.497Z,12.77
2022-12-31T23:30:27.387Z,13.93
2022-12-31T23:32:55.639Z,11.50
2022-12-31T23:35:25.200Z,12.93
2022-12-31T23:37:52.052Z,12.47
2022-12-31T23:40:21.431Z,12.97
2022-12-31T23:42:50.093Z,13.43
2022-12-31T23:45:16.886Z,13.17
2022-12-31T23:47:43.727Z,14.37
2022-12-31T23:50:10.503Z,12.77
2022-12-31T23:52:37.177Z,11.30
2022-12-31T23:55:04.298Z,12.50
2022-12-31T23:57:30.976Z,11.20
2022-12-31T23:59:59.831Z,11.70
